createdAt,value
2023-01-04T00:01:19.502Z,93933.03
2023-01-04T00:02:51.143Z,93929.50
2023-01-04T00:04:22.901Z,93932.69
2023-01-04T00:05:54.392Z,93933.41
2023-01-04T00:07:26.213Z,93937.94
2023-01-04T00:08:57.664Z,93934.94
2023-01-04T00:10:29.276Z,93941.84
2023-01-04T00:12:00.739Z,93934.56
2023-01-04T00:13:32.347Z,93937.72
2023-01-04T00:15:04.259Z,93940.91
2023-01-04T00:16:35.797Z,93938.25
2023-01-04T00:18:07.858Z,93942.19
2023-01-04T00:19:39.397Z,93945.09
2023-01-04T00:21:14.668Z,93941.41
2023-01-04T00:22:46.213Z,93944.31
2023-01-04T00:24:17.698Z,93943.16
2023-01-04T00:25:49.214Z,93946.66
2023-01-04T00:27:20.732Z,93945.84
2023-01-04T00:28:55.933Z,93946.84
2023-01-04T00:30:27.966Z,93941.63
2023-01-04T00:31:59.487Z,93946.72
2023-01-04T00:33:31.069Z,93942.19
2023-01-04T00:35:02.599Z,93951.28
2023-01-04T00:36:34.202Z,93949.28
2023-01-04T00:38:05.820Z,93947.97
2023-01-04T00:39:37.324Z,93947.75
2023-01-04T00:41:23.093Z,93948.03
2023-01-04T00:43:00.734Z,93950.22
2023-01-04T00:44:32.869Z,93955.53
2023-01-04T00:46:04.480Z,93950.69
2023-01-04T00:47:36.049Z,93953.06
2023-01-04T00:49:08.748Z,93959.44
2023-01-04T00:50:40.330Z,93952.50
2023-01-04T00:52:11.906Z,93951.69
2023-01-04T00:53:43.808Z,93953.31
2023-01-04T00:55:15.657Z,93952.19
2023-01-04T00:56:47.200Z,93954.59
2023-01-04T00:58:18.723Z,93958.31
2023-01-04T00:59:50.148Z,93957.75
2023-01-04T01:01:21.737Z,93957.19
2023-01-04T01:02:53.693Z,93959.63
2023-01-04T01:04:25.640Z,93946.03
2023-01-04T01:06:01.132Z,93952.25
2023-01-04T01:07:32.628Z,93948.03
2023-01-04T01:09:04.184Z,93951.25
2023-01-04T01:10:35.661Z,93948.91
2023-01-04T01:12:07.176Z,93954.81
2023-01-04T01:13:38.746Z,93944.88
2023-01-04T01:15:10.558Z,93952.56
2023-01-04T01:16:55.354Z,93947.19
2023-01-04T01:18:28.996Z,93946.03
2023-01-04T01:20:00.741Z,93946.25
2023-01-04T01:21:32.884Z,93949.50
2023-01-04T01:23:04.443Z,93944.13
2023-01-04T01:24:35.948Z,93953.66
2023-01-04T01:26:07.976Z,93946.72
2023-01-04T01:27:39.508Z,93946.72
2023-01-04T01:29:11.029Z,93943.56
2023-01-04T01:30:42.861Z,93940.59
2023-01-04T01:32:14.402Z,93948.19
2023-01-04T01:33:46.363Z,93943.78
2023-01-04T01:35:17.863Z,93942.25
2023-01-04T01:36:49.485Z,93940.00
2023-01-04T01:38:20.954Z,93942.84
2023-01-04T01:39:52.496Z,93942.84
2023-01-04T01:41:31.064Z,93948.16
2023-01-04T01:43:02.523Z,93952.69
2023-01-04T01:44:42.942Z,93952.97
2023-01-04T01:46:15.009Z,93947.44
2023-01-04T01:47:46.584Z,93953.56
2023-01-04T01:49:31.053Z,93949.03
2023-01-04T01:51:03.258Z,93950.19
2023-01-04T01:52:35.983Z,93951.78
2023-01-04T01:54:09.298Z,93948.88
2023-01-04T01:55:41.267Z,93948.88
2023-01-04T01:57:14.112Z,93944.91
2023-01-04T01:58:46.312Z,93944.69
2023-01-04T02:00:17.903Z,93945.00
2023-01-04T02:01:49.880Z,93942.91
2023-01-04T02:03:22.392Z,93939.91
2023-01-04T02:04:54.086Z,93936.69
2023-01-04T02:06:33.115Z,93937.44
2023-01-04T02:08:06.772Z,93938.16
2023-01-04T02:09:38.239Z,93936.78
2023-01-04T02:11:10.126Z,93930.88
2023-01-04T02:12:41.823Z,93933.31
2023-01-04T02:14:28.148Z,93931.47
2023-01-04T02:16:10.312Z,93930.41
2023-01-04T02:17:56.236Z,93927.50
2023-01-04T02:19:42.692Z,93929.44
2023-01-04T02:21:37.177Z,93933.47
2023-01-04T02:23:08.641Z,93939.34
2023-01-04T02:24:43.106Z,93929.59
2023-01-04T02:26:23.482Z,93934.75
2023-01-04T02:27:59.949Z,93936.59
2023-01-04T02:29:31.403Z,93932.06
2023-01-04T02:31:02.958Z,93927.78
2023-01-04T02:32:37.272Z,93929.34
2023-01-04T02:34:13.421Z,93933.59
2023-01-04T02:35:50.824Z,93932.25
2023-01-04T02:37:42.531Z,93933.53
2023-01-04T02:39:14.794Z,93927.09
2023-01-04T02:40:51.961Z,93928.88
2023-01-04T02:43:01.056Z,93929.84
2023-01-04T02:44:53.659Z,93931.53
2023-01-04T02:46:26.706Z,93933.56
2023-01-04T02:48:20.130Z,93929.53
2023-01-04T02:50:10.361Z,93932.44
2023-01-04T02:51:41.859Z,93930.09
2023-01-04T02:53:14.772Z,93937.59
2023-01-04T02:54:46.292Z,93933.63
2023-01-04T02:56:19.684Z,93929.69
2023-01-04T02:57:56.916Z,93925.50
2023-01-04T02:59:33.741Z,93920.50
2023-01-04T03:01:31.521Z,93927.19
2023-01-04T03:03:37.869Z,93922.75
2023-01-04T03:05:28.057Z,93923.63
2023-01-04T03:07:20.472Z,93918.72
2023-01-04T03:08:54.889Z,93925.22
2023-01-04T03:10:31.587Z,93914.94
2023-01-04T03:12:23.563Z,93923.78
2023-01-04T03:14:00.322Z,93917.19
2023-01-04T03:15:33.748Z,93923.41
2023-01-04T03:17:07.191Z,93919.69
2023-01-04T03:18:41.167Z,93925.53
2023-01-04T03:20:13.284Z,93930.41
2023-01-04T03:21:44.839Z,93926.22
2023-01-04T03:23:35.735Z,93925.16
2023-01-04T03:25:26.128Z,93917.75
2023-01-04T03:27:18.412Z,93918.78
2023-01-04T03:29:08.742Z,93925.34
2023-01-04T03:31:12.894Z,93926.31
2023-01-04T03:33:07.360Z,93923.25
2023-01-04T03:34:58.414Z,93926.09
2023-01-04T03:36:53.359Z,93926.75
2023-01-04T03:38:46.375Z,93937.75
2023-01-04T03:40:42.720Z,93932.13
2023-01-04T03:42:35.123Z,93930.41
2023-01-04T03:44:28.697Z,93925.84
2023-01-04T03:46:45.021Z,93937.53
2023-01-04T03:48:31.660Z,93939.63
2023-01-04T03:50:13.826Z,93941.94
2023-01-04T03:51:45.375Z,93946.13
2023-01-04T03:53:16.962Z,93937.59
2023-01-04T03:54:48.449Z,93928.81
2023-01-04T03:56:21.133Z,93928.00
2023-01-04T03:57:52.926Z,93923.50
2023-01-04T03:59:24.515Z,93926.47
2023-01-04T04:01:04.187Z,93926.22
2023-01-04T04:02:36.043Z,93925.50
2023-01-04T04:04:26.358Z,93923.16
2023-01-04T04:06:16.560Z,93930.75
2023-01-04T04:08:06.819Z,93932.91
2023-01-04T04:09:38.512Z,93926.78
2023-01-04T04:11:28.746Z,93930.78
2023-01-04T04:13:00.363Z,93933.06
2023-01-04T04:14:31.907Z,93926.94
2023-01-04T04:16:04.144Z,93930.88
2023-01-04T04:17:35.798Z,93926.84
2023-01-04T04:19:09.148Z,93930.31
2023-01-04T04:20:40.793Z,93936.69
2023-01-04T04:22:12.370Z,93928.38
2023-01-04T04:23:45.525Z,93931.53
2023-01-04T04:25:17.114Z,93933.63
2023-01-04T04:26:48.979Z,93937.00
2023-01-04T04:28:20.408Z,93945.19
2023-01-04T04:29:51.931Z,93945.34
2023-01-04T04:31:23.528Z,93942.13
2023-01-04T04:32:56.189Z,93942.94
2023-01-04T04:34:27.918Z,93946.88
2023-01-04T04:36:00.050Z,93945.81
2023-01-04T04:37:32.227Z,93944.22
2023-01-04T04:39:04.172Z,93943.97
2023-01-04T04:40:56.954Z,93941.31
2023-01-04T04:42:28.514Z,93946.63
2023-01-04T04:44:00.180Z,93944.78
2023-01-04T04:45:32.006Z,93946.88
2023-01-04T04:47:04.312Z,93952.19
2023-01-04T04:48:36.231Z,93950.00
2023-01-04T04:50:09.322Z,93957.91
2023-01-04T04:51:41.006Z,93948.56
2023-01-04T04:53:12.837Z,93946.53
2023-01-04T04:54:45.273Z,93953.84
2023-01-04T04:56:16.923Z,93950.31
2023-01-04T04:57:49.138Z,93952.06
2023-01-04T04:59:21.113Z,93952.56
2023-01-04T05:00:52.724Z,93954.31
2023-01-04T05:02:24.477Z,93957.66
2023-01-04T05:03:56.382Z,93954.13
2023-01-04T05:05:28.419Z,93958.06
2023-01-04T05:06:59.917Z,93956.94
2023-01-04T05:08:31.478Z,93966.19
2023-01-04T05:10:03.299Z,93963.28
2023-01-04T05:11:53.861Z,93968.28
2023-01-04T05:13:26.146Z,93973.41
2023-01-04T05:14:57.726Z,93966.84
2023-01-04T05:16:29.978Z,93970.44
2023-01-04T05:18:01.620Z,93973.22
2023-01-04T05:19:33.164Z,93977.63
2023-01-04T05:21:04.778Z,93971.50
2023-01-04T05:22:36.492Z,93978.56
2023-01-04T05:24:11.508Z,93982.94
2023-01-04T05:25:43.136Z,93986.91
2023-01-04T05:27:14.709Z,93978.34
2023-01-04T05:28:53.249Z,93978.69
2023-01-04T05:30:43.796Z,93976.50
2023-01-04T05:32:15.375Z,93974.28
2023-01-04T05:33:47.014Z,93977.34
2023-01-04T05:35:18.586Z,93984.63
2023-01-04T05:36:50.305Z,93981.47
2023-01-04T05:38:21.881Z,93985.88
2023-01-04T05:39:53.534Z,93986.44
2023-01-04T05:41:43.511Z,93977.97
2023-01-04T05:43:15.172Z,93987.38
2023-01-04T05:44:46.697Z,93985.56
2023-01-04T05:46:18.263Z,93991.81
2023-01-04T05:47:51.036Z,93988.25
2023-01-04T05:49:22.530Z,93981.81
2023-01-04T05:50:54.405Z,93990.47
2023-01-04T05:52:26.101Z,93986.56
2023-01-04T05:53:57.586Z,93987.25
2023-01-04T05:55:29.249Z,93994.06
2023-01-04T05:57:00.838Z,93996.16
2023-01-04T05:58:32.355Z,93995.91
2023-01-04T06:00:04.415Z,93996.72
2023-01-04T06:01:35.990Z,93994.41
2023-01-04T06:03:07.585Z,93993.94
2023-01-04T06:04:39.219Z,93996.38
2023-01-04T06:06:10.772Z,93990.59
2023-01-04T06:07:42.402Z,93977.63
2023-01-04T06:09:13.963Z,93985.38
2023-01-04T06:10:45.529Z,93988.59
2023-01-04T06:12:17.055Z,93992.16
2023-01-04T06:13:48.594Z,93983.84
2023-01-04T06:15:20.411Z,93984.16
2023-01-04T06:16:52.053Z,93982.91
2023-01-04T06:18:23.814Z,93988.13
2023-01-04T06:19:55.421Z,93986.63
2023-01-04T06:21:26.925Z,93990.00
2023-01-04T06:22:58.443Z,93993.91
2023-01-04T06:24:29.977Z,94001.09
2023-01-04T06:26:01.598Z,93998.44
2023-01-04T06:27:33.156Z,94001.44
2023-01-04T06:29:04.736Z,93998.06
2023-01-04T06:30:36.393Z,93994.13
2023-01-04T06:32:08.085Z,93997.59
2023-01-04T06:33:39.925Z,93998.41
2023-01-04T06:35:11.544Z,94009.50
2023-01-04T06:36:43.170Z,94010.53
2023-01-04T06:38:14.760Z,94010.06
2023-01-04T06:39:46.441Z,94009.03
2023-01-04T06:41:18.047Z,94016.78
2023-01-04T06:44:51.201Z,94013.53
2023-01-04T06:46:28.293Z,94015.72
2023-01-04T06:48:09.200Z,94013.06
2023-01-04T06:49:48.914Z,94007.75
2023-01-04T06:51:23.905Z,94010.41
2023-01-04T06:52:56.937Z,94009.69
2023-01-04T06:54:36.032Z,94008.78
2023-01-04T06:56:11.245Z,94003.78
2023-01-04T06:57:45.813Z,94002.28
2023-01-04T06:59:19.925Z,94004.47
2023-01-04T07:00:52.069Z,94007.72
2023-01-04T07:02:23.916Z,94016.94
2023-01-04T07:03:55.943Z,94010.03
2023-01-04T07:05:27.550Z,94026.09
2023-01-04T07:06:59.141Z,94017.03
2023-01-04T07:08:30.760Z,94024.13
2023-01-04T07:10:07.272Z,94013.13
2023-01-04T07:11:41.214Z,94016.84
2023-01-04T07:13:12.853Z,94021.03
2023-01-04T07:14:44.500Z,94021.72
2023-01-04T07:16:16.288Z,94031.91
2023-01-04T07:17:48.329Z,94029.94
2023-01-04T07:19:19.887Z,94017.13
2023-01-04T07:20:51.591Z,94030.41
2023-01-04T07:22:23.257Z,94030.97
2023-01-04T07:23:56.453Z,94033.63
2023-01-04T07:25:28.321Z,94029.13
2023-01-04T07:27:00.279Z,94034.22
2023-01-04T07:28:50.665Z,94028.19
2023-01-04T07:30:22.885Z,94038.13
2023-01-04T07:31:54.724Z,94031.31
2023-01-04T07:33:26.423Z,94034.16
2023-01-04T07:34:58.475Z,94035.09
2023-01-04T07:36:30.170Z,94034.38
2023-01-04T07:38:01.944Z,94040.72
2023-01-04T07:39:33.761Z,94036.78
2023-01-04T07:41:06.198Z,94039.00
2023-01-04T07:42:38.055Z,94039.81
2023-01-04T07:44:09.771Z,94045.94
2023-01-04T07:45:43.774Z,94038.41
2023-01-04T07:47:15.532Z,94042.56
2023-01-04T07:48:47.514Z,94037.97
2023-01-04T07:50:19.404Z,94037.63
2023-01-04T07:51:51.280Z,94042.38
2023-01-04T07:53:22.899Z,94045.53
2023-01-04T07:54:54.779Z,94043.56
2023-01-04T07:56:26.684Z,94034.91
2023-01-04T07:57:58.338Z,94046.09
2023-01-04T07:59:30.122Z,94048.19
2023-01-04T08:01:08.819Z,94039.66
2023-01-04T08:02:40.925Z,94037.31
2023-01-04T08:04:13.170Z,94041.38
2023-01-04T08:05:44.859Z,94045.75
2023-01-04T08:07:17.220Z,94042.75
2023-01-04T08:08:49.108Z,94047.91
2023-01-04T08:10:21.555Z,94047.56
2023-01-04T08:11:57.189Z,94040.50
2023-01-04T08:13:28.752Z,94050.75
2023-01-04T08:15:01.402Z,94042.88
2023-01-04T08:16:34.463Z,94047.25
2023-01-04T08:18:09.810Z,94041.00
2023-01-04T08:19:41.689Z,94051.03
2023-01-04T08:21:16.649Z,94043.22
2023-01-04T08:22:48.751Z,94039.06
2023-01-04T08:24:20.292Z,94047.63
2023-01-04T08:25:52.069Z,94040.69
2023-01-04T08:27:23.686Z,94041.50
2023-01-04T08:28:56.600Z,94036.25
2023-01-04T08:30:28.433Z,94040.53
2023-01-04T08:32:00.062Z,94049.56
2023-01-04T08:33:31.718Z,94037.28
2023-01-04T08:35:03.529Z,94042.94
2023-01-04T08:36:36.002Z,94046.41
2023-01-04T08:38:55.679Z,94047.81
2023-01-04T08:39:59.277Z,94044.56
2023-01-04T08:41:56.904Z,94041.97
2023-01-04T08:43:22.884Z,94037.56
2023-01-04T08:44:59.264Z,94029.34
2023-01-04T08:46:31.620Z,94036.53
2023-01-04T08:48:03.276Z,94040.34
2023-01-04T08:49:35.014Z,94044.03
2023-01-04T08:51:10.424Z,94044.34
2023-01-04T08:52:42.501Z,94038.56
2023-01-04T08:54:17.435Z,94037.09
2023-01-04T08:55:49.697Z,94037.50
2023-01-04T08:57:21.508Z,94044.31
2023-01-04T08:58:53.279Z,94036.41
2023-01-04T09:00:24.965Z,94037.13
2023-01-04T09:02:02.661Z,94038.91
2023-01-04T09:03:37.007Z,94032.91
2023-01-04T09:05:08.745Z,94037.31
2023-01-04T09:06:40.619Z,94035.78
2023-01-04T09:08:12.221Z,94030.50
2023-01-04T09:09:44.115Z,94027.38
2023-01-04T09:11:19.486Z,94026.06
2023-01-04T09:12:51.349Z,94030.34
2023-01-04T09:14:23.157Z,94029.28
2023-01-04T09:15:55.213Z,94029.34
2023-01-04T09:17:26.919Z,94031.59
2023-01-04T09:18:58.603Z,94029.63
2023-01-04T09:20:30.498Z,94023.13
2023-01-04T09:22:02.211Z,94024.38
2023-01-04T09:23:34.372Z,94021.03
2023-01-04T09:25:06.311Z,94023.91
2023-01-04T09:26:37.797Z,94019.78
2023-01-04T09:28:09.452Z,94021.25
2023-01-04T09:29:41.611Z,94020.84
2023-01-04T09:31:20.113Z,94012.38
2023-01-04T09:32:52.083Z,94011.16
2023-01-04T09:34:24.103Z,94012.53
2023-01-04T09:35:56.146Z,94009.56
2023-01-04T09:37:30.272Z,94006.84
2023-01-04T09:39:02.197Z,94007.91
2023-01-04T09:40:57.401Z,94002.59
2023-01-04T09:42:36.994Z,93994.69
2023-01-04T09:44:09.769Z,93995.81
2023-01-04T09:45:46.127Z,93995.34
2023-01-04T09:47:33.089Z,94000.19
2023-01-04T09:49:25.976Z,94000.53
2023-01-04T09:51:00.621Z,94001.91
2023-01-04T09:52:38.599Z,94003.31
2023-01-04T09:54:17.326Z,93999.84
2023-01-04T09:55:51.004Z,93992.94
2023-01-04T09:57:25.149Z,93999.94
2023-01-04T09:59:01.527Z,93997.00
2023-01-04T10:00:43.969Z,93984.19
2023-01-04T10:02:17.668Z,93994.66
2023-01-04T10:04:00.186Z,93998.94
2023-01-04T10:05:32.411Z,93993.09
2023-01-04T10:07:05.348Z,94000.31
2023-01-04T10:08:37.229Z,93990.97
2023-01-04T10:10:13.625Z,93992.31
2023-01-04T10:11:54.314Z,93993.69
2023-01-04T10:13:32.328Z,93992.63
2023-01-04T10:15:23.081Z,93987.81
2023-01-04T10:17:13.318Z,93987.28
2023-01-04T10:22:53.368Z,93979.84
2023-01-04T10:24:29.134Z,93975.81
2023-01-04T10:26:07.803Z,93980.38
2023-01-04T10:28:00.748Z,93974.50
2023-01-04T10:29:38.994Z,93984.16
2023-01-04T10:31:43.556Z,93976.41
2023-01-04T10:33:16.829Z,93983.66
2023-01-04T10:34:50.026Z,93975.59
2023-01-04T10:36:25.675Z,93974.50
2023-01-04T10:38:02.170Z,93973.69
2023-01-04T10:39:35.115Z,93988.75
2023-01-04T10:41:11.983Z,93976.41
2023-01-04T10:42:43.783Z,93980.44
2023-01-04T10:44:29.463Z,93985.81
2023-01-04T10:46:14.228Z,93983.66
2023-01-04T10:48:05.817Z,93990.63
2023-01-04T10:49:46.091Z,93996.25
2023-01-04T10:51:22.048Z,93991.97
2023-01-04T10:53:07.077Z,93988.50
2023-01-04T10:54:41.050Z,93986.34
2023-01-04T10:56:28.880Z,93983.91
2023-01-04T10:58:26.334Z,93988.22
2023-01-04T11:00:07.842Z,93984.22
2023-01-04T11:01:40.953Z,93975.63
2023-01-04T11:03:12.921Z,93977.78
2023-01-04T11:05:06.713Z,93975.09
2023-01-04T11:06:43.154Z,93976.72
2023-01-04T11:08:16.172Z,93975.91
2023-01-04T11:09:48.241Z,93967.84
2023-01-04T11:11:24.853Z,93970.81
2023-01-04T11:12:58.198Z,93967.84
2023-01-04T11:14:36.971Z,93962.22
2023-01-04T11:16:11.146Z,93959.53
2023-01-04T11:17:44.115Z,93960.31
2023-01-04T11:19:17.561Z,93965.44
2023-01-04T11:20:49.360Z,93953.38
2023-01-04T11:22:25.094Z,93955.78
2023-01-04T11:24:21.933Z,93956.28
2023-01-04T11:26:01.856Z,93949.84
2023-01-04T11:27:38.565Z,93942.84
2023-01-04T11:29:17.967Z,93943.13
2023-01-04T11:31:00.709Z,93946.06
2023-01-04T11:32:39.058Z,93932.09
2023-01-04T11:34:11.885Z,93928.03
2023-01-04T11:35:49.833Z,93926.09
2023-01-04T11:37:28.113Z,93923.38
2023-01-04T11:39:01.851Z,93918.53
2023-01-04T11:40:36.132Z,93928.47
2023-01-04T11:42:14.821Z,93928.13
2023-01-04T11:43:56.271Z,93932.41
2023-01-04T11:45:29.547Z,93928.06
2023-01-04T11:47:17.491Z,93926.94
2023-01-04T11:48:49.764Z,93924.78
2023-01-04T11:50:39.242Z,93929.00
2023-01-04T11:52:30.880Z,93924.44
2023-01-04T11:54:05.795Z,93920.97
2023-01-04T11:55:38.751Z,93923.34
2023-01-04T11:57:18.313Z,93921.44
2023-01-04T11:59:08.118Z,93925.72
2023-01-04T12:00:42.621Z,93922.22
2023-01-04T12:02:50.650Z,93922.75
2023-01-04T12:04:15.828Z,93921.69
2023-01-04T12:05:47.653Z,93924.91
2023-01-04T12:07:36.561Z,93924.81
2023-01-04T12:09:15.522Z,93913.72
2023-01-04T12:10:49.416Z,93909.13
2023-01-04T12:12:27.991Z,93916.38
2023-01-04T12:14:01.900Z,93912.00
2023-01-04T12:15:45.341Z,93907.59
2023-01-04T12:17:23.651Z,93908.91
2023-01-04T12:18:55.954Z,93910.75
2023-01-04T12:20:28.142Z,93908.31
2023-01-04T12:22:00.785Z,93909.31
2023-01-04T12:23:34.225Z,93909.00
2023-01-04T12:25:09.614Z,93909.81
2023-01-04T12:26:42.613Z,93908.53
2023-01-04T12:28:33.170Z,93911.50
2023-01-04T12:30:06.381Z,93910.19
2023-01-04T12:31:38.399Z,93905.09
2023-01-04T12:33:28.683Z,93910.19
2023-01-04T12:35:00.524Z,93910.47
2023-01-04T12:36:38.647Z,93903.50
2023-01-04T12:38:11.094Z,93904.56
2023-01-04T12:39:44.107Z,93908.63
2023-01-04T12:41:15.786Z,93911.56
2023-01-04T12:43:08.335Z,93910.19
2023-01-04T12:44:40.041Z,93910.69
2023-01-04T12:46:48.575Z,93904.22
2023-01-04T12:48:44.802Z,93911.03
2023-01-04T12:50:20.817Z,93902.75
2023-01-04T12:54:03.947Z,93909.03
2023-01-04T12:55:43.774Z,93900.69
2023-01-04T12:57:18.939Z,93898.78
2023-01-04T12:59:26.709Z,93895.78
2023-01-04T13:00:59.323Z,93890.84
2023-01-04T13:02:31.243Z,93893.88
2023-01-04T13:04:06.284Z,93893.69
2023-01-04T13:05:55.935Z,93892.94
2023-01-04T13:07:30.391Z,93888.34
2023-01-04T13:09:02.266Z,93895.91
2023-01-04T13:10:36.751Z,93897.97
2023-01-04T13:12:10.173Z,93896.50
2023-01-04T13:13:45.883Z,93887.25
2023-01-04T13:15:22.807Z,93895.28
2023-01-04T13:17:09.198Z,93893.09
2023-01-04T13:18:42.153Z,93891.09
2023-01-04T13:20:20.754Z,93893.16
2023-01-04T13:21:52.663Z,93883.41
2023-01-04T13:23:27.237Z,93890.03
2023-01-04T13:24:59.469Z,93893.59
2023-01-04T13:26:36.893Z,93893.94
2023-01-04T13:28:17.103Z,93892.66
2023-01-04T13:29:49.467Z,93897.28
2023-01-04T13:31:21.230Z,93898.50
2023-01-04T13:33:25.064Z,93899.75
2023-01-04T13:34:54.302Z,93886.06
2023-01-04T13:36:26.211Z,93897.38
2023-01-04T13:37:57.925Z,93891.06
2023-01-04T13:39:29.810Z,93882.06
2023-01-04T13:41:01.453Z,93886.75
2023-01-04T13:42:35.407Z,93879.06
2023-01-04T13:44:12.137Z,93886.97
2023-01-04T13:46:05.810Z,93887.50
2023-01-04T13:47:39.327Z,93888.50
2023-01-04T13:49:11.936Z,93886.31
2023-01-04T13:50:47.529Z,93883.41
2023-01-04T13:54:22.134Z,93886.91
2023-01-04T13:55:57.320Z,93898.22
2023-01-04T13:57:28.958Z,93890.41
2023-01-04T13:59:01.294Z,93888.19
2023-01-04T14:00:52.836Z,93894.72
2023-01-04T14:02:24.664Z,93887.78
2023-01-04T14:04:00.511Z,93885.88
2023-01-04T14:05:32.385Z,93883.56
2023-01-04T14:07:05.007Z,93885.06
2023-01-04T14:08:37.993Z,93886.44
2023-01-04T14:10:14.297Z,93881.06
2023-01-04T14:12:09.903Z,93882.38
2023-01-04T14:13:46.046Z,93885.66
2023-01-04T14:15:24.367Z,93890.44
2023-01-04T14:17:08.670Z,93889.03
2023-01-04T14:18:40.720Z,93895.41
2023-01-04T14:20:12.986Z,93892.66
2023-01-04T14:21:52.663Z,93900.50
2023-01-04T14:23:31.170Z,93894.94
2023-01-04T14:25:22.079Z,93899.47
2023-01-04T14:26:53.818Z,93898.41
2023-01-04T14:28:29.322Z,93896.13
2023-01-04T14:30:01.437Z,93899.03
2023-01-04T14:31:33.381Z,93902.66
2023-01-04T14:33:20.725Z,93897.34
2023-01-04T14:36:30.619Z,93889.81
2023-01-04T14:38:03.499Z,93888.06
2023-01-04T14:39:35.531Z,93893.28
2023-01-04T14:41:20.579Z,93885.53
2023-01-04T14:42:52.277Z,93894.50
2023-01-04T14:44:31.271Z,93892.19
2023-01-04T14:46:05.551Z,93886.59
2023-01-04T14:47:39.318Z,93887.97
2023-01-04T14:49:11.038Z,93891.28
2023-01-04T14:50:43.461Z,93888.91
2023-01-04T14:52:22.105Z,93890.59
2023-01-04T14:53:55.316Z,93880.75
2023-01-04T14:55:26.911Z,93891.31
2023-01-04T14:56:58.703Z,93885.44
2023-01-04T14:58:30.459Z,93890.84
2023-01-04T15:00:02.574Z,93883.63
2023-01-04T15:01:34.703Z,93883.16
2023-01-04T15:03:06.842Z,93885.84
2023-01-04T15:04:38.773Z,93875.97
2023-01-04T15:06:10.781Z,93874.38
2023-01-04T15:07:42.767Z,93880.81
2023-01-04T15:09:14.419Z,93880.59
2023-01-04T15:10:46.664Z,93880.34
2023-01-04T15:12:18.242Z,93881.97
2023-01-04T15:13:49.944Z,93877.13
2023-01-04T15:15:21.565Z,93875.53
2023-01-04T15:16:53.281Z,93879.84
2023-01-04T15:18:25.133Z,93879.88
2023-01-04T15:19:56.880Z,93875.06
2023-01-04T15:21:28.414Z,93882.59
2023-01-04T15:23:00.347Z,93880.69
2023-01-04T15:24:31.983Z,93868.66
2023-01-04T15:26:07.299Z,93876.97
2023-01-04T15:27:42.467Z,93874.84
2023-01-04T15:29:14.688Z,93878.06
2023-01-04T15:30:46.701Z,93886.69
2023-01-04T15:32:18.567Z,93888.03
2023-01-04T15:33:50.554Z,93881.31
2023-01-04T15:35:22.151Z,93885.88
2023-01-04T15:36:53.762Z,93888.84
2023-01-04T15:38:25.485Z,93890.22
2023-01-04T15:40:02.291Z,93886.19
2023-01-04T15:41:53.827Z,93888.09
2023-01-04T15:43:28.823Z,93887.88
2023-01-04T15:45:04.997Z,93890.53
2023-01-04T15:46:36.623Z,93885.97
2023-01-04T15:48:09.552Z,93886.25
2023-01-04T15:49:41.198Z,93892.69
2023-01-04T15:51:12.791Z,93898.34
2023-01-04T15:52:44.472Z,93893.78
2023-01-04T15:54:17.269Z,93894.03
2023-01-04T15:55:48.992Z,93890.03
2023-01-04T15:57:20.669Z,93891.34
2023-01-04T15:58:53.879Z,93891.63
2023-01-04T16:00:25.733Z,93897.25
2023-01-04T16:01:58.130Z,93900.75
2023-01-04T16:03:29.820Z,93896.19
2023-01-04T16:05:01.403Z,93895.66
2023-01-04T16:06:32.965Z,93897.25
2023-01-04T16:08:04.645Z,93897.78
2023-01-04T16:09:38.149Z,93897.53
2023-01-04T16:11:12.599Z,93896.75
2023-01-04T16:12:53.090Z,93897.56
2023-01-04T16:14:28.316Z,93897.84
2023-01-04T16:16:02.717Z,93895.41
2023-01-04T16:17:34.438Z,93899.47
2023-01-04T16:19:06.244Z,93899.19
2023-01-04T16:20:40.513Z,93898.41
2023-01-04T16:22:12.472Z,93904.81
2023-01-04T16:23:44.269Z,93900.00
2023-01-04T16:25:16.065Z,93898.41
2023-01-04T16:26:47.938Z,93904.84
2023-01-04T16:28:19.995Z,93901.63
2023-01-04T16:29:53.419Z,93889.28
2023-01-04T16:31:25.545Z,93902.41
2023-01-04T16:32:57.427Z,93899.72
2023-01-04T16:34:29.468Z,93896.78
2023-01-04T16:36:04.556Z,93902.41
2023-01-04T16:37:36.451Z,93899.47
2023-01-04T16:39:08.911Z,93897.31
2023-01-04T16:40:40.494Z,93901.63
2023-01-04T16:42:12.255Z,93893.59
2023-01-04T16:43:45.222Z,93908.59
2023-01-04T16:45:17.665Z,93902.69
2023-01-04T16:46:49.294Z,93901.91
2023-01-04T16:48:20.996Z,93898.69
2023-01-04T16:49:53.024Z,93907.25
2023-01-04T16:51:25.469Z,93902.16
2023-01-04T16:52:57.033Z,93889.84
2023-01-04T16:54:28.889Z,93907.28
2023-01-04T16:56:03.202Z,93907.00
2023-01-04T16:57:34.830Z,93896.00
2023-01-04T16:59:07.172Z,93897.88
2023-01-04T17:00:39.052Z,93894.66
2023-01-04T17:02:11.162Z,93900.56
2023-01-04T17:03:43.255Z,93897.34
2023-01-04T17:05:14.955Z,93902.69
2023-01-04T17:06:47.004Z,93901.09
2023-01-04T17:08:23.562Z,93901.09
2023-01-04T17:09:59.482Z,93899.50
2023-01-04T17:12:19.284Z,93908.63
2023-01-04T17:13:23.715Z,93912.09
2023-01-04T17:15:23.498Z,93904.34
2023-01-04T17:16:48.783Z,93909.41
2023-01-04T17:18:23.086Z,93905.94
2023-01-04T17:19:55.193Z,93909.16
2023-01-04T17:21:35.801Z,93913.47
2023-01-04T17:23:08.250Z,93919.91
2023-01-04T17:24:40.346Z,93914.53
2023-01-04T17:26:13.644Z,93913.16
2023-01-04T17:27:46.703Z,93917.19
2023-01-04T17:29:18.290Z,93912.38
2023-01-04T17:30:49.977Z,93921.22
2023-01-04T17:32:22.219Z,93918.81
2023-01-04T17:33:54.083Z,93919.63
2023-01-04T17:35:26.223Z,93917.72
2023-01-04T17:36:58.070Z,93922.59
2023-01-04T17:38:29.828Z,93919.59
2023-01-04T17:40:01.594Z,93921.25
2023-01-04T17:41:33.460Z,93919.63
2023-01-04T17:43:05.722Z,93922.84
2023-01-04T17:44:37.415Z,93928.19
2023-01-04T17:46:11.060Z,93925.78
2023-01-04T17:47:43.369Z,93922.56
2023-01-04T17:49:22.814Z,93918.28
2023-01-04T17:50:55.907Z,93919.34
2023-01-04T17:52:31.400Z,93914.53
2023-01-04T17:54:03.599Z,93912.41
2023-01-04T17:55:38.171Z,93918.81
2023-01-04T17:57:10.787Z,93924.44
2023-01-04T17:58:43.117Z,93923.91
2023-01-04T18:00:15.150Z,93917.47
2023-01-04T18:01:46.887Z,93914.00
2023-01-04T18:03:22.078Z,93929.00
2023-01-04T18:04:53.756Z,93923.91
2023-01-04T18:06:29.779Z,93925.25
2023-01-04T18:08:01.410Z,93923.13
2023-01-04T18:09:33.150Z,93926.88
2023-01-04T18:11:08.445Z,93926.59
2023-01-04T18:12:41.093Z,93933.84
2023-01-04T18:14:14.640Z,93927.13
2023-01-04T18:16:10.310Z,93930.34
2023-01-04T18:17:38.896Z,93928.19
2023-01-04T18:19:11.712Z,93925.53
2023-01-04T18:20:49.092Z,93932.22
2023-01-04T18:22:22.786Z,93930.09
2023-01-04T18:25:52.472Z,93934.34
2023-01-04T18:27:25.921Z,93924.19
2023-01-04T18:28:58.664Z,93931.16
2023-01-04T18:30:30.492Z,93931.13
2023-01-04T18:32:02.286Z,93934.06
2023-01-04T18:33:34.610Z,93924.44
2023-01-04T18:35:06.729Z,93933.56
2023-01-04T18:36:42.508Z,93923.63
2023-01-04T18:38:14.388Z,93928.75
2023-01-04T18:39:46.730Z,93931.16
2023-01-04T18:41:18.445Z,93938.63
2023-01-04T18:42:50.275Z,93942.13
2023-01-04T18:44:32.804Z,93931.66
2023-01-04T18:46:09.883Z,93934.34
2023-01-04T18:47:41.958Z,93935.69
2023-01-04T18:49:13.501Z,93941.03
2023-01-04T18:50:45.530Z,93933.53
2023-01-04T18:52:17.320Z,93942.91
2023-01-04T18:53:48.925Z,93942.09
2023-01-04T18:55:20.505Z,93934.88